Time,TemperatureF,DewpointF,PressureIn,WindDirection,WindDirectionDegrees,WindSpeedMPH,WindSpeedGustMPH,Humidity,HourlyPrecipIn,Conditions,Clouds,dailyrainin,SoftwareType,DateUTC
2013-10-07 00:22:00,54.0,-99.9,-100.00,SW,230,2.0,3.0,-999,-99.99,,,-99.99,,2013-10-07 07:22:00,
2013-10-07 00:42:00,52.0,-99.9,-100.00,West,275,3.0,3.0,-999,-99.99,,,-99.99,,2013-10-07 07:42:00,
2013-10-07 00:52:00,52.0,-99.9,-100.00,West,275,3.0,3.0,-999,-99.99,,,-99.99,,2013-10-07 07:52:00,
2013-10-07 01:22:00,54.0,-99.9,-100.00,North,8,4.0,6.0,-999,-99.99,,,-99.99,,2013-10-07 08:22:00,
2013-10-07 01:42:00,59.0,-99.9,-100.00,West,278,5.0,16.0,-999,-99.99,,,-99.99,,2013-10-07 08:42:00,
2013-10-07 01:52:00,59.0,-99.9,-100.00,West,278,5.0,16.0,-999,-99.99,,,-99.99,,2013-10-07 08:52:00,
2013-10-07 02:43:00,59.0,-99.9,-100.00,NW,308,1.0,2.0,-999,-99.99,,,-99.99,,2013-10-07 09:43:00,
2013-10-07 02:54:00,59.0,-99.9,-100.00,NW,308,1.0,2.0,-999,-99.99,,,-99.99,,2013-10-07 09:54:00,
2013-10-07 03:23:00,54.0,-99.9,-100.00,WNW,296,2.0,3.0,-999,-99.99,,,-99.99,,2013-10-07 10:23:00,
2013-10-07 03:33:00,54.0,-99.9,-100.00,WNW,296,2.0,3.0,-999,-99.99,,,-99.99,,2013-10-07 10:33:00,
2013-10-07 03:53:00,54.0,-99.9,-100.00,West,260,0.0,4.0,-999,-99.99,,,-99.99,,2013-10-07 10:53:00,
2013-10-07 04:20:00,59.0,-99.9,-100.00,SW,234,11.0,11.0,-999,-99.99,,,-99.99,,2013-10-07 11:20:00,
2013-10-07 04:42:00,61.0,-99.9,-100.00,SW,226,9.0,16.0,-999,-99.99,,,-99.99,,2013-10-07 11:42:00,
2013-10-07 04:53:00,61.0,-99.9,-100.00,SW,226,9.0,16.0,-999,-99.99,,,-99.99,,2013-10-07 11:53:00,
2013-10-07 05:12:00,59.0,-99.9,-100.00,SW,234,11.0,11.0,-999,-99.99,,,-99.99,,2013-10-07 12:12:00,
2013-10-07 05:20:00,56.0,-99.9,-100.00,West,261,6.0,10.0,-999,-99.99,,,-99.99,,2013-10-07 12:20:00,
2013-10-07 05:43:00,56.0,-99.9,-100.00,West,268,8.0,9.0,-999,-99.99,,,-99.99,,2013-10-07 12:43:00,
2013-10-07 05:53:00,56.0,-99.9,-100.00,West,268,8.0,9.0,-999,-99.99,,,-99.99,,2013-10-07 12:53:00,
2013-10-07 06:00:00,56.0,-99.9,-100.00,West,277,8.0,12.0,-999,-99.99,,,-99.99,,2013-10-07 13:00:00,
2013-10-07 06:11:00,56.0,-99.9,-100.00,West,261,6.0,10.0,-999,-99.99,,,-99.99,,2013-10-07 13:11:00,
2013-10-07 06:42:00,56.0,-99.9,-100.00,West,271,9.0,14.0,-999,-99.99,,,-99.99,,2013-10-07 13:42:00,
2013-10-07 06:52:00,56.0,-99.9,-100.00,West,277,8.0,12.0,-999,-99.99,,,-99.99,,2013-10-07 13:52:00,
2013-10-07 07:43:00,55.0,-99.9,-100.00,West,269,9.0,15.0,-999,-99.99,,,-99.99,,2013-10-07 14:43:00,
2013-10-07 07:52:00,55.0,-99.9,-100.00,West,269,9.0,15.0,-999,-99.99,,,-99.99,,2013-10-07 14:52:00,
2013-10-07 08:43:00,53.0,-99.9,-100.00,WNW,286,8.0,15.0,-999,-99.99,,,-99.99,,2013-10-07 15:43:00,
2013-10-07 08:54:00,53.0,-99.9,-100.00,WNW,286,8.0,15.0,-999,-99.99,,,-99.99,,2013-10-07 15:54:00,
2013-10-07 09:10:00,54.0,-99.9,-100.00,WSW,247,3.0,10.0,-999,-99.99,,,-99.99,,2013-10-07 16:10:00,
2013-10-07 09:43:00,56.0,-99.9,-100.00,WNW,288,5.0,14.0,-999,-99.99,,,-99.99,,2013-10-07 16:43:00,
2013-10-07 09:53:00,54.0,-99.9,-100.00,WSW,247,3.0,10.0,-999,-99.99,,,-99.99,,2013-10-07 16:53:00,
2013-10-07 10:03:00,54.0,-99.9,-100.00,WSW,247,3.0,10.0,-999,-99.99,,,-99.99,,2013-10-07 17:03:00,
2013-10-07 10:43:00,57.0,-99.9,-100.00,West,272,4.0,8.0,-999,-99.99,,,-99.99,,2013-10-07 17:43:00,
2013-10-07 10:53:00,57.0,-99.9,-100.00,West,272,4.0,8.0,-999,-99.99,,,-99.99,,2013-10-07 17:53:00,
2013-10-07 11:42:00,57.0,-99.9,-100.00,NNW,341,2.0,15.0,-999,-99.99,,,-99.99,,2013-10-07 18:42:00,
2013-10-07 11:52:00,57.0,-99.9,-100.00,NNW,341,2.0,15.0,-999,-99.99,,,-99.99,,2013-10-07 18:52:00,
2013-10-07 12:10:00,58.0,-99.9,-100.00,NNW,328,17.0,22.0,-999,-99.99,,,-99.99,,2013-10-07 19:10:00,
2013-10-07 12:42:00,60.0,-99.9,-100.00,WNW,292,2.0,10.0,-999,-99.99,,,-99.99,,2013-10-07 19:42:00,
2013-10-07 12:53:00,58.0,-99.9,-100.00,NNW,328,17.0,22.0,-999,-99.99,,,-99.99,,2013-10-07 19:53:00,
2013-10-07 13:02:00,58.0,-99.9,-100.00,NNW,328,17.0,22.0,-999,-99.99,,,-99.99,,2013-10-07 20:02:00,
2013-10-07 13:43:00,56.0,-99.9,-100.00,WNW,283,8.0,17.0,-999,-99.99,,,-99.99,,2013-10-07 20:43:00,
2013-10-07 13:52:00,56.0,-99.9,-100.00,WNW,283,8.0,17.0,-999,-99.99,,,-99.99,,2013-10-07 20:52:00,
2013-10-07 13:55:00,58.0,-99.9,-100.00,WSW,244,8.0,15.0,-999,-99.99,,,-99.99,,2013-10-07 20:55:00,
2013-10-07 15:43:00,60.0,-99.9,-100.00,NW,320,6.0,8.0,-999,-99.99,,,-99.99,,2013-10-07 22:43:00,
2013-10-07 15:54:00,60.0,-99.9,-100.00,NW,320,6.0,8.0,-999,-99.99,,,-99.99,,2013-10-07 22:54:00,
2013-10-07 16:42:00,55.0,-99.9,-100.00,West,260,4.0,12.0,-999,-99.99,,,-99.99,,2013-10-07 23:42:00,
2013-10-07 16:52:00,55.0,-99.9,-100.00,West,260,4.0,12.0,-999,-99.99,,,-99.99,,2013-10-07 23:52:00,
2013-10-07 17:22:00,57.0,-99.9,-100.00,West,266,4.0,9.0,-999,-99.99,,,-99.99,,2013-10-08 00:22:00,
2013-10-07 17:42:00,55.0,-99.9,-100.00,WNW,284,4.0,13.0,-999,-99.99,,,-99.99,,2013-10-08 00:42:00,
2013-10-07 17:52:00,55.0,-99.9,-100.00,WNW,284,4.0,13.0,-999,-99.99,,,-99.99,,2013-10-08 00:52:00,
2013-10-07 18:22:00,55.0,-99.9,-100.00,WSW,238,4.0,8.0,-999,-99.99,,,-99.99,,2013-10-08 01:22:00,
2013-10-07 18:42:00,54.0,-99.9,-100.00,West,275,3.0,7.0,-999,-99.99,,,-99.99,,2013-10-08 01:42:00,
2013-10-07 18:52:00,56.0,-99.9,-100.00,West,270,6.0,6.0,-999,-99.99,,,-99.99,,2013-10-08 01:52:00,
2013-10-07 19:03:00,56.0,-99.9,-100.00,West,270,6.0,6.0,-999,-99.99,,,-99.99,,2013-10-08 02:03:00,
2013-10-07 19:22:00,55.0,-99.9,-100.00,WSW,253,4.0,16.0,-999,-99.99,,,-99.99,,2013-10-08 02:22:00,
2013-10-07 19:42:00,55.0,-99.9,-100.00,WSW,256,4.0,8.0,-999,-99.99,,,-99.99,,2013-10-08 02:42:00,
2013-10-07 19:53:00,55.0,-99.9,-100.00,WSW,256,4.0,8.0,-999,-99.99,,,-99.99,,2013-10-08 02:53:00,
2013-10-07 19:55:00,54.0,-99.9,-100.00,WNW,297,4.0,8.0,-999,-99.99,,,-99.99,,2013-10-08 02:55:00,
2013-10-07 20:44:00,54.0,-99.9,-100.00,WNW,297,4.0,8.0,-999,-99.99,,,-99.99,,2013-10-08 03:44:00,
2013-10-07 21:43:00,54.0,-99.9,-100.00,NNW,328,6.0,14.0,-999,-99.99,,,-99.99,,2013-10-08 04:43:00,
2013-10-07 21:53:00,54.0,-99.9,-100.00,NNW,328,6.0,14.0,-999,-99.99,,,-99.99,,2013-10-08 04:53:00,
2013-10-07 22:42:00,54.0,-99.9,-100.00,WNW,300,5.0,7.0,-999,-99.99,,,-99.99,,2013-10-08 05:42:00,
2013-10-07 22:53:00,54.0,-99.9,-100.00,NNE,24,1.0,3.0,-999,-99.99,,,-99.99,,2013-10-08 05:53:00,
2013-10-07 23:02:00,54.0,-99.9,-100.00,NNE,24,1.0,3.0,-999,-99.99,,,-99.99,,2013-10-08 06:02:00,
2013-10-07 23:10:00,56.0,-99.9,-100.00,WSW,238,4.0,4.0,-999,-99.99,,,-99.99,,2013-10-08 06:10:00,
2013-10-07 23:22:00,54.0,-99.9,-100.00,NW,311,6.0,7.0,-999,-99.99,,,-99.99,,2013-10-08 06:22:00,
2013-10-07 23:42:00,54.0,-99.9,-100.00,WSW,248,2.0,4.0,-999,-99.99,,,-99.99,,2013-10-08 06:42:00,
2013-10-07 23:52:00,56.0,-99.9,-100.00,WSW,238,4.0,4.0,-999,-99.99,,,-99.99,,2013-10-08 06:52:00,